sensor_id;sensor_type;location;lat;lon;timestamp;pressure;altitude;pressure_sealevel;temperature;humidity
19236;BME280;9752;54.270;12.470;2022-07-23T00:01:22;101654.75;;;13.18;100.00
19236;BME280;9752;54.270;12.470;2022-07-23T00:06:25;101645.38;;;12.94;100.00
19236;BME280;9752;54.270;12.470;2022-07-23T00:11:28;101642.50;;;12.76;100.00
19236;BME280;9752;54.270;12.470;2022-07-23T00:16:29;101648.81;;;12.79;100.00
19236;BME280;9752;54.270;12.470;2022-07-23T00:21:31;101653.13;;;12.79;100.00
19236;BME280;9752;54.270;12.470;2022-07-23T00:26:34;101637.81;;;12.70;100.00
19236;BME280;9752;54.270;12.470;2022-07-23T00:31:36;101626.19;;;12.65;100.00
19236;BME280;9752;54.270;12.470;2022-07-23T00:36:38;101616.22;;;12.58;100.00
19236;BME280;9752;54.270;12.470;2022-07-23T00:41:42;101610.06;;;12.44;100.00
19236;BME280;9752;54.270;12.470;2022-07-23T00:46:45;101600.88;;;12.36;100.00
19236;BME280;9752;54.270;12.470;2022-07-23T00:51:48;101586.47;;;12.27;100.00
19236;BME280;9752;54.270;12.470;2022-07-23T00:56:51;101594.28;;;12.27;100.00
19236;BME280;9752;54.270;12.470;2022-07-23T01:01:53;101600.38;;;12.41;100.00
19236;BME280;9752;54.270;12.470;2022-07-23T01:06:55;101593.97;;;12.49;100.00
19236;BME280;9752;54.270;12.470;2022-07-23T01:11:58;101592.78;;;12.71;100.00
19236;BME280;9752;54.270;12.470;2022-07-23T01:17:00;101581.53;;;12.72;100.00
19236;BME280;9752;54.270;12.470;2022-07-23T01:22:04;101583.75;;;12.79;100.00
19236;BME280;9752;54.270;12.470;2022-07-23T01:27:07;101583.75;;;12.79;100.00
19236;BME280;9752;54.270;12.470;2022-07-23T01:32:11;101573.59;;;12.84;100.00
19236;BME280;9752;54.270;12.470;2022-07-23T01:37:13;101577.91;;;12.83;100.00
19236;BME280;9752;54.270;12.470;2022-07-23T01:42:16;101574.53;;;12.84;100.00
19236;BME280;9752;54.270;12.470;2022-07-23T01:47:18;101575.00;;;12.92;100.00
19236;BME280;9752;54.270;12.470;2022-07-23T01:52:22;101567.28;;;12.94;100.00
19236;BME280;9752;54.270;12.470;2022-07-23T01:57:26;101568.38;;;12.97;100.00
19236;BME280;9752;54.270;12.470;2022-07-23T02:02:28;101568.06;;;13.06;100.00
19236;BME280;9752;54.270;12.470;2022-07-23T02:07:29;101568.53;;;13.14;100.00
19236;BME280;9752;54.270;12.470;2022-07-23T02:12:34;101575.81;;;13.19;100.00
19236;BME280;9752;54.270;12.470;2022-07-23T02:17:36;101574.22;;;13.21;100.00
19236;BME280;9752;54.270;12.470;2022-07-23T02:22:38;101572.59;;;13.23;100.00
19236;BME280;9752;54.270;12.470;2022-07-23T02:27:42;101561.28;;;13.23;100.00
19236;BME280;9752;54.270;12.470;2022-07-23T02:32:43;101569.22;;;13.24;100.00
19236;BME280;9752;54.270;12.470;2022-07-23T02:37:45;101562.19;;;13.23;100.00
19236;BME280;9752;54.270;12.470;2022-07-23T02:42:49;101560.56;;;13.25;100.00
19236;BME280;9752;54.270;12.470;2022-07-23T02:47:51;101561.28;;;13.23;100.00
19236;BME280;9752;54.270;12.470;2022-07-23T02:52:53;101556.06;;;13.23;100.00
19236;BME280;9752;54.270;12.470;2022-07-23T02:57:56;101549.16;;;13.23;100.00
19236;BME280;9752;54.270;12.470;2022-07-23T03:02:57;101550.25;;;13.27;100.00
19236;BME280;9752;54.270;12.470;2022-07-23T03:07:59;101546.44;;;13.35;100.00
19236;BME280;9752;54.270;12.470;2022-07-23T03:13:03;101537.84;;;13.51;100.00
19236;BME280;9752;54.270;12.470;2022-07-23T03:18:05;101542.00;;;13.62;100.00
19236;BME280;9752;54.270;12.470;2022-07-23T03:23:07;101542.72;;;13.75;100.00
19236;BME280;9752;54.270;12.470;2022-07-23T03:28:10;101551.91;;;13.83;100.00
19236;BME280;9752;54.270;12.470;2022-07-23T03:33:12;101544.16;;;13.84;100.00
19236;BME280;9752;54.270;12.470;2022-07-23T03:38:13;101551.34;;;13.89;100.00
19236;BME280;9752;54.270;12.470;2022-07-23T03:43:17;101539.56;;;13.95;100.00
19236;BME280;9752;54.270;12.470;2022-07-23T03:48:20;101530.41;;;14.02;100.00
19236;BME280;9752;54.270;12.470;2022-07-23T03:53:21;101528.25;;;14.10;100.00
19236;BME280;9752;54.270;12.470;2022-07-23T03:58:24;101525.44;;;14.21;100.00
19236;BME280;9752;54.270;12.470;2022-07-23T04:03:27;101522.44;;;14.30;100.00
19236;BME280;9752;54.270;12.470;2022-07-23T04:08:28;101520.34;;;14.39;100.00
19236;BME280;9752;54.270;12.470;2022-07-23T04:13:33;101532.75;;;14.43;100.00
19236;BME280;9752;54.270;12.470;2022-07-23T04:18:37;101537.81;;;14.40;100.00
19236;BME280;9752;54.270;12.470;2022-07-23T04:23:48;101530.97;;;14.42;100.00
19236;BME280;9752;54.270;12.470;2022-07-23T04:28:52;101543.47;;;14.48;100.00
19236;BME280;9752;54.270;12.470;2022-07-23T04:33:53;101544.53;;;14.52;100.00
19236;BME280;9752;54.270;12.470;2022-07-23T04:38:55;101548.31;;;14.57;100.00
19236;BME280;9752;54.270;12.470;2022-07-23T04:43:59;101540.16;;;14.82;100.00
19236;BME280;9752;54.270;12.470;2022-07-23T04:49:01;101548.09;;;15.00;100.00
19236;BME280;9752;54.270;12.470;2022-07-23T04:54:03;101544.19;;;15.08;100.00
19236;BME280;9752;54.270;12.470;2022-07-23T04:59:07;101541.06;;;15.15;100.00
19236;BME280;9752;54.270;12.470;2022-07-23T05:04:09;101542.72;;;14.97;100.00
19236;BME280;9752;54.270;12.470;2022-07-23T05:09:12;101538.06;;;14.91;100.00
19236;BME280;9752;54.270;12.470;2022-07-23T05:14:16;101529.63;;;14.80;100.00
19236;BME280;9752;54.270;12.470;2022-07-23T05:19:18;101531.50;;;14.99;100.00
19236;BME280;9752;54.270;12.470;2022-07-23T05:24:21;101546.81;;;15.08;100.00
19236;BME280;9752;54.270;12.470;2022-07-23T05:29:25;101543.94;;;15.20;100.00
19236;BME280;9752;54.270;12.470;2022-07-23T05:34:27;101539.19;;;15.46;100.00
19236;BME280;9752;54.270;12.470;2022-07-23T05:39:29;101534.59;;;15.41;100.00
19236;BME280;9752;54.270;12.470;2022-07-23T05:44:32;101535.66;;;15.45;100.00
19236;BME280;9752;54.270;12.470;2022-07-23T05:49:36;101551.59;;;15.50;100.00
19236;BME280;9752;54.270;12.470;2022-07-23T05:54:57;101549.22;;;15.54;100.00
19236;BME280;9752;54.270;12.470;2022-07-23T06:00:02;101550.06;;;15.37;100.00
19236;BME280;9752;54.270;12.470;2022-07-23T06:05:14;101537.81;;;15.36;100.00
19236;BME280;9752;54.270;12.470;2022-07-23T06:10:19;101552.31;;;15.64;100.00
19236;BME280;9752;54.270;12.470;2022-07-23T06:15:22;101559.19;;;15.78;100.00
19236;BME280;9752;54.270;12.470;2022-07-23T06:20:25;101550.84;;;15.85;100.00
19236;BME280;9752;54.270;12.470;2022-07-23T06:25:27;101529.34;;;16.09;100.00
19236;BME280;9752;54.270;12.470;2022-07-23T06:30:30;101530.84;;;16.04;100.00
19236;BME280;9752;54.270;12.470;2022-07-23T06:35:32;101533.06;;;16.50;100.00
19236;BME280;9752;54.270;12.470;2022-07-23T06:40:35;101545.59;;;16.37;100.00
19236;BME280;9752;54.270;12.470;2022-07-23T06:45:38;101544.00;;;16.41;100.00
19236;BME280;9752;54.270;12.470;2022-07-23T06:50:39;101549.13;;;16.93;100.00
19236;BME280;9752;54.270;12.470;2022-07-23T06:55:41;101566.56;;;16.93;100.00
19236;BME280;9752;54.270;12.470;2022-07-23T07:00:45;101572.56;;;16.36;100.00
19236;BME280;9752;54.270;12.470;2022-07-23T07:05:47;101580.50;;;16.74;100.00
19236;BME280;9752;54.270;12.470;2022-07-23T07:10:50;101589.03;;;16.52;100.00
19236;BME280;9752;54.270;12.470;2022-07-23T07:15:53;101582.66;;;16.29;100.00
19236;BME280;9752;54.270;12.470;2022-07-23T07:20:54;101582.38;;;16.58;100.00
19236;BME280;9752;54.270;12.470;2022-07-23T07:25:56;101586.31;;;17.04;100.00
19236;BME280;9752;54.270;12.470;2022-07-23T07:30:59;101591.19;;;17.53;100.00
19236;BME280;9752;54.270;12.470;2022-07-23T07:36:01;101598.78;;;17.47;100.00
19236;BME280;9752;54.270;12.470;2022-07-23T07:41:04;101593.22;;;16.66;100.00
19236;BME280;9752;54.270;12.470;2022-07-23T07:46:07;101590.06;;;16.19;100.00
19236;BME280;9752;54.270;12.470;2022-07-23T07:51:10;101584.00;;;16.74;100.00
19236;BME280;9752;54.270;12.470;2022-07-23T07:56:12;101599.19;;;16.82;100.00
19236;BME280;9752;54.270;12.470;2022-07-23T08:01:15;101599.00;;;16.95;100.00
19236;BME280;9752;54.270;12.470;2022-07-23T08:06:17;101604.13;;;17.50;100.00
19236;BME280;9752;54.270;12.470;2022-07-23T08:11:19;101590.47;;;17.58;100.00
19236;BME280;9752;54.270;12.470;2022-07-23T08:16:22;101597.72;;;18.02;100.00
19236;BME280;9752;54.270;12.470;2022-07-23T08:21:24;101601.34;;;18.06;100.00
19236;BME280;9752;54.270;12.470;2022-07-23T08:26:26;101604.97;;;17.30;100.00
19236;BME280;9752;54.270;12.470;2022-07-23T08:31:29;101616.03;;;17.05;100.00
19236;BME280;9752;54.270;12.470;2022-07-23T08:36:33;101616.41;;;17.12;100.00
19236;BME280;9752;54.270;12.470;2022-07-23T08:41:35;101622.47;;;17.11;100.00
19236;BME280;9752;54.270;12.470;2022-07-23T08:46:39;101621.34;;;17.44;100.00
19236;BME280;9752;54.270;12.470;2022-07-23T08:51:41;101630.97;;;16.88;100.00
19236;BME280;9752;54.270;12.470;2022-07-23T08:56:43;101632.41;;;17.18;100.00
19236;BME280;9752;54.270;12.470;2022-07-23T09:01:46;101633.13;;;16.96;100.00
19236;BME280;9752;54.270;12.470;2022-07-23T09:06:48;101624.22;;;16.57;100.00
19236;BME280;9752;54.270;12.470;2022-07-23T09:12:02;101631.66;;;16.84;100.00
19236;BME280;9752;54.270;12.470;2022-07-23T09:17:10;101619.44;;;16.66;100.00
19236;BME280;9752;54.270;12.470;2022-07-23T09:22:23;101625.56;;;17.03;100.00
19236;BME280;9752;54.270;12.470;2022-07-23T09:27:45;101614.09;;;17.38;100.00
19236;BME280;9752;54.270;12.470;2022-07-23T09:33:08;101611.81;;;18.25;100.00
19236;BME280;9752;54.270;12.470;2022-07-23T09:38:10;101623.75;;;18.40;100.00
19236;BME280;9752;54.270;12.470;2022-07-23T09:43:12;101611.53;;;18.19;100.00
19236;BME280;9752;54.270;12.470;2022-07-23T09:48:16;101608.47;;;18.08;100.00
19236;BME280;9752;54.270;12.470;2022-07-23T09:53:24;101610.06;;;18.90;100.00
19236;BME280;9752;54.270;12.470;2022-07-23T09:58:26;101618.13;;;19.64;100.00
19236;BME280;9752;54.270;12.470;2022-07-23T10:03:30;101631.03;;;19.34;100.00
19236;BME280;9752;54.270;12.470;2022-07-23T10:09:08;101645.72;;;18.63;100.00
19236;BME280;9752;54.270;12.470;2022-07-23T10:14:34;101658.03;;;18.22;100.00
19236;BME280;9752;54.270;12.470;2022-07-23T10:19:40;101647.53;;;18.43;100.00
19236;BME280;9752;54.270;12.470;2022-07-23T10:24:55;101651.66;;;18.80;100.00
19236;BME280;9752;54.270;12.470;2022-07-23T10:30:02;101643.84;;;19.02;100.00
19236;BME280;9752;54.270;12.470;2022-07-23T10:35:15;101656.66;;;17.89;100.00
19236;BME280;9752;54.270;12.470;2022-07-23T10:40:22;101672.66;;;17.95;100.00
19236;BME280;9752;54.270;12.470;2022-07-23T10:45:30;101676.03;;;18.12;100.00
19236;BME280;9752;54.270;12.470;2022-07-23T10:50:33;101667.84;;;18.47;100.00
19236;BME280;9752;54.270;12.470;2022-07-23T10:55:41;101671.03;;;17.60;100.00
19236;BME280;9752;54.270;12.470;2022-07-23T11:00:43;101686.72;;;17.59;100.00
19236;BME280;9752;54.270;12.470;2022-07-23T11:05:46;101676.38;;;17.24;100.00
19236;BME280;9752;54.270;12.470;2022-07-23T11:10:53;101674.72;;;17.83;100.00
19236;BME280;9752;54.270;12.470;2022-07-23T11:27:06;101668.44;;;19.72;100.00
19236;BME280;9752;54.270;12.470;2022-07-23T11:32:17;101670.84;;;18.77;100.00
19236;BME280;9752;54.270;12.470;2022-07-23T11:37:35;101669.00;;;18.75;100.00
19236;BME280;9752;54.270;12.470;2022-07-23T11:42:39;101685.41;;;19.58;
19236;BME280;9752;54.270;12.470;2022-07-23T11:47:50;101687.06;;;19.31;100.00
19236;BME280;9752;54.270;12.470;2022-07-23T11:52:53;101694.69;;;18.40;100.00
19236;BME280;9752;54.270;12.470;2022-07-23T11:57:56;101701.38;;;18.12;100.00
19236;BME280;9752;54.270;12.470;2022-07-23T12:02:59;101696.53;;;18.02;100.00
19236;BME280;9752;54.270;12.470;2022-07-23T12:08:03;101705.09;;;17.78;100.00
19236;BME280;9752;54.270;12.470;2022-07-23T12:13:08;101690.59;;;18.67;100.00
19236;BME280;9752;54.270;12.470;2022-07-23T12:18:14;101693.84;;;18.20;100.00
19236;BME280;9752;54.270;12.470;2022-07-23T12:23:18;101700.97;;;18.84;100.00
19236;BME280;9752;54.270;12.470;2022-07-23T12:28:28;101692.84;;;18.37;100.00
19236;BME280;9752;54.270;12.470;2022-07-23T12:33:32;101697.53;;;18.65;100.00
19236;BME280;9752;54.270;12.470;2022-07-23T12:38:37;101709.78;;;18.24;100.00
19236;BME280;9752;54.270;12.470;2022-07-23T12:43:43;101693.88;;;18.62;100.00
19236;BME280;9752;54.270;12.470;2022-07-23T12:48:51;101701.94;;;18.66;100.00
19236;BME280;9752;54.270;12.470;2022-07-23T12:53:55;101705.66;;;18.71;100.00
19236;BME280;9752;54.270;12.470;2022-07-23T12:59:04;101700.44;;;19.15;100.00
19236;BME280;9752;54.270;12.470;2022-07-23T13:04:08;101701.41;;;19.40;100.00
19236;BME280;9752;54.270;12.470;2022-07-23T13:09:11;101707.47;;;19.37;100.00
19236;BME280;9752;54.270;12.470;2022-07-23T13:14:16;101709.63;;;18.62;100.00
19236;BME280;9752;54.270;12.470;2022-07-23T13:19:18;101719.97;;;18.78;100.00
19236;BME280;9752;54.270;12.470;2022-07-23T13:24:22;101717.13;;;18.52;100.00
19236;BME280;9752;54.270;12.470;2022-07-23T13:29:26;101719.75;;;19.16;100.00
19236;BME280;9752;54.270;12.470;2022-07-23T13:34:28;101719.69;;;19.37;100.00
19236;BME280;9752;54.270;12.470;2022-07-23T13:39:30;101728.34;;;20.52;100.00
19236;BME280;9752;54.270;12.470;2022-07-23T13:44:33;101724.22;;;19.86;100.00
19236;BME280;9752;54.270;12.470;2022-07-23T13:49:35;101726.34;;;19.72;100.00
19236;BME280;9752;54.270;12.470;2022-07-23T13:54:37;101726.03;;;19.64;100.00
19236;BME280;9752;54.270;12.470;2022-07-23T13:59:40;101729.09;;;19.53;100.00
19236;BME280;9752;54.270;12.470;2022-07-23T14:04:42;101726.88;;;18.76;100.00
19236;BME280;9752;54.270;12.470;2022-07-23T14:09:44;101730.34;;;18.54;100.00
19236;BME280;9752;54.270;12.470;2022-07-23T14:14:47;101725.34;;;18.60;100.00
19236;BME280;9752;54.270;12.470;2022-07-23T14:19:50;101724.03;;;19.14;100.00
19236;BME280;9752;54.270;12.470;2022-07-23T14:24:51;101726.75;;;18.52;100.00
19236;BME280;9752;54.270;12.470;2022-07-23T14:29:55;101722.09;;;19.53;100.00
19236;BME280;9752;54.270;12.470;2022-07-23T14:34:57;101738.06;;;18.70;100.00
19236;BME280;9752;54.270;12.470;2022-07-23T14:39:59;101729.81;;;19.71;100.00
19236;BME280;9752;54.270;12.470;2022-07-23T14:45:02;101734.91;;;19.00;100.00
19236;BME280;9752;54.270;12.470;2022-07-23T14:50:06;101730.50;;;18.99;100.00
19236;BME280;9752;54.270;12.470;2022-07-23T14:55:08;101736.69;;;18.59;100.00
19236;BME280;9752;54.270;12.470;2022-07-23T15:00:12;101734.44;;;20.01;100.00
19236;BME280;9752;54.270;12.470;2022-07-23T15:05:14;101740.63;;;18.90;100.00
19236;BME280;9752;54.270;12.470;2022-07-23T15:10:16;101745.75;;;18.25;100.00
19236;BME280;9752;54.270;12.470;2022-07-23T15:15:19;101749.03;;;18.02;100.00
19236;BME280;9752;54.270;12.470;2022-07-23T15:20:21;101743.06;;;18.45;100.00
19236;BME280;9752;54.270;12.470;2022-07-23T15:25:23;101751.91;;;20.73;100.00
19236;BME280;9752;54.270;12.470;2022-07-23T15:30:27;101748.84;;;19.64;100.00
19236;BME280;9752;54.270;12.470;2022-07-23T15:35:30;101760.66;;;18.46;100.00
19236;BME280;9752;54.270;12.470;2022-07-23T15:40:32;101756.63;;;19.17;100.00
19236;BME280;9752;54.270;12.470;2022-07-23T15:45:35;101756.91;;;19.91;100.00
19236;BME280;9752;54.270;12.470;2022-07-23T15:50:37;101757.03;;;19.05;100.00
19236;BME280;9752;54.270;12.470;2022-07-23T15:55:39;101761.88;;;18.54;100.00
19236;BME280;9752;54.270;12.470;2022-07-23T16:00:43;101765.28;;;17.55;100.00
19236;BME280;9752;54.270;12.470;2022-07-23T16:05:44;101767.63;;;17.49;100.00
19236;BME280;9752;54.270;12.470;2022-07-23T16:10:46;101761.63;;;18.09;100.00
19236;BME280;9752;54.270;12.470;2022-07-23T16:15:49;101769.19;;;17.83;100.00
19236;BME280;9752;54.270;12.470;2022-07-23T16:20:52;101770.06;;;17.46;100.00
19236;BME280;9752;54.270;12.470;2022-07-23T16:25:54;101754.19;;;17.43;100.00
19236;BME280;9752;54.270;12.470;2022-07-23T16:30:57;101774.06;;;17.20;100.00
19236;BME280;9752;54.270;12.470;2022-07-23T16:35:59;101762.44;;;16.97;100.00
19236;BME280;9752;54.270;12.470;2022-07-23T16:41:01;101774.44;;;17.10;100.00
19236;BME280;9752;54.270;12.470;2022-07-23T16:46:05;101767.09;;;16.85;100.00
19236;BME280;9752;54.270;12.470;2022-07-23T16:51:08;101776.16;;;16.75;100.00
19236;BME280;9752;54.270;12.470;2022-07-23T16:56:10;101773.31;;;16.87;100.00
19236;BME280;9752;54.270;12.470;2022-07-23T17:01:13;101765.13;;;17.16;100.00
19236;BME280;9752;54.270;12.470;2022-07-23T17:06:15;101758.94;;;17.14;100.00
19236;BME280;9752;54.270;12.470;2022-07-23T17:11:17;101758.63;;;16.90;100.00
19236;BME280;9752;54.270;12.470;2022-07-23T17:16:20;101761.00;;;16.69;100.00
19236;BME280;9752;54.270;12.470;2022-07-23T17:21:21;101764.84;;;16.58;100.00
19236;BME280;9752;54.270;12.470;2022-07-23T17:26:24;101758.59;;;16.56;100.00
19236;BME280;9752;54.270;12.470;2022-07-23T17:31:28;101764.28;;;16.82;100.00
19236;BME280;9752;54.270;12.470;2022-07-23T17:36:29;101766.72;;;16.78;100.00
19236;BME280;9752;54.270;12.470;2022-07-23T17:41:32;101771.25;;;16.81;100.00
19236;BME280;9752;54.270;12.470;2022-07-23T17:46:35;101783.78;;;16.70;100.00
19236;BME280;9752;54.270;12.470;2022-07-23T17:51:37;101772.34;;;16.85;100.00
19236;BME280;9752;54.270;12.470;2022-07-23T17:56:39;101765.94;;;16.63;100.00
19236;BME280;9752;54.270;12.470;2022-07-23T18:01:43;101769.88;;;16.71;100.00
19236;BME280;9752;54.270;12.470;2022-07-23T18:06:45;101787.56;;;17.83;100.00
19236;BME280;9752;54.270;12.470;2022-07-23T18:11:47;101786.72;;;16.93;100.00
19236;BME280;9752;54.270;12.470;2022-07-23T18:16:50;101785.19;;;16.64;100.00
19236;BME280;9752;54.270;12.470;2022-07-23T18:21:52;101783.28;;;16.43;100.00
19236;BME280;9752;54.270;12.470;2022-07-23T18:26:53;101782.78;;;16.34;100.00
19236;BME280;9752;54.270;12.470;2022-07-23T18:31:56;101788.75;;;16.31;100.00
19236;BME280;9752;54.270;12.470;2022-07-23T18:36:58;101791.22;;;16.28;100.00
19236;BME280;9752;54.270;12.470;2022-07-23T18:42:00;101788.44;;;16.25;100.00
19236;BME280;9752;54.270;12.470;2022-07-23T18:47:05;101790.56;;;16.32;100.00
19236;BME280;9752;54.270;12.470;2022-07-23T18:52:07;101798.41;;;16.32;100.00
19236;BME280;9752;54.270;12.470;2022-07-23T18:57:09;101800.94;;;16.31;100.00
19236;BME280;9752;54.270;12.470;2022-07-23T19:02:12;101796.78;;;16.34;100.00
19236;BME280;9752;54.270;12.470;2022-07-23T19:07:14;101814.91;;;16.31;100.00
19236;BME280;9752;54.270;12.470;2022-07-23T19:12:16;101817.88;;;16.21;100.00
19236;BME280;9752;54.270;12.470;2022-07-23T19:17:20;101808.31;;;16.05;100.00
19236;BME280;9752;54.270;12.470;2022-07-23T19:22:21;101816.22;;;15.90;100.00
19236;BME280;9752;54.270;12.470;2022-07-23T19:27:23;101827.44;;;15.73;100.00
19236;BME280;9752;54.270;12.470;2022-07-23T19:32:26;101824.03;;;15.74;100.00
19236;BME280;9752;54.270;12.470;2022-07-23T19:37:28;101830.06;;;15.73;100.00
19236;BME280;9752;54.270;12.470;2022-07-23T19:42:30;101835.75;;;15.80;100.00
19236;BME280;9752;54.270;12.470;2022-07-23T19:47:34;101839.88;;;15.92;100.00
19236;BME280;9752;54.270;12.470;2022-07-23T19:52:36;101841.19;;;16.00;100.00
19236;BME280;9752;54.270;12.470;2022-07-23T19:57:38;101838.88;;;16.06;100.00
19236;BME280;9752;54.270;12.470;2022-07-23T20:02:42;101833.84;;;16.09;100.00
19236;BME280;9752;54.270;12.470;2022-07-23T20:07:44;101846.19;;;16.12;100.00
19236;BME280;9752;54.270;12.470;2022-07-23T20:12:46;101854.69;;;16.08;100.00
19236;BME280;9752;54.270;12.470;2022-07-23T20:17:49;101849.34;;;16.06;100.00
19236;BME280;9752;54.270;12.470;2022-07-23T20:22:51;101857.94;;;16.04;100.00
19236;BME280;9752;54.270;12.470;2022-07-23T20:27:52;101852.81;;;16.05;100.00
19236;BME280;9752;54.270;12.470;2022-07-23T20:32:57;101851.81;;;16.03;100.00
19236;BME280;9752;54.270;12.470;2022-07-23T20:37:59;101860.47;;;16.02;100.00
19236;BME280;9752;54.270;12.470;2022-07-23T20:43:01;101860.56;;;16.04;100.00
19236;BME280;9752;54.270;12.470;2022-07-23T20:48:05;101863.28;;;16.05;100.00
19236;BME280;9752;54.270;12.470;2022-07-23T20:53:07;101855.25;;;16.02;100.00
19236;BME280;9752;54.270;12.470;2022-07-23T20:58:09;101866.50;;;16.01;100.00
19236;BME280;9752;54.270;12.470;2022-07-23T21:03:12;101875.28;;;16.02;100.00
19236;BME280;9752;54.270;12.470;2022-07-23T21:08:14;101875.09;;;15.98;100.00
19236;BME280;9752;54.270;12.470;2022-07-23T21:13:16;101889.91;;;15.98;100.00
19236;BME280;9752;54.270;12.470;2022-07-23T21:18:19;101889.03;;;15.97;100.00
19236;BME280;9752;54.270;12.470;2022-07-23T21:23:21;101890.81;;;15.98;100.00
19236;BME280;9752;54.270;12.470;2022-07-23T21:28:23;101895.81;;;15.94;100.00
19236;BME280;9752;54.270;12.470;2022-07-23T21:33:26;101902.66;;;15.92;100.00
19236;BME280;9752;54.270;12.470;2022-07-23T21:38:28;101909.88;;;15.96;100.00
19236;BME280;9752;54.270;12.470;2022-07-23T21:43:30;101908.59;;;15.89;100.00
19236;BME280;9752;54.270;12.470;2022-07-23T21:48:33;101912.94;;;15.89;100.00
19236;BME280;9752;54.270;12.470;2022-07-23T21:53:34;101910.31;;;15.89;100.00
19236;BME280;9752;54.270;12.470;2022-07-23T21:58:36;101923.72;;;15.78;100.00
19236;BME280;9752;54.270;12.470;2022-07-23T22:03:39;101921.09;;;15.78;100.00
19236;BME280;9752;54.270;12.470;2022-07-23T22:08:41;101911.34;;;15.76;100.00
19236;BME280;9752;54.270;12.470;2022-07-23T22:13:43;101917.91;;;15.69;100.00
19236;BME280;9752;54.270;12.470;2022-07-23T22:18:46;101916.84;;;15.66;100.00
19236;BME280;9752;54.270;12.470;2022-07-23T22:23:48;101913.13;;;15.62;100.00
19236;BME280;9752;54.270;12.470;2022-07-23T22:28:50;101914.88;;;15.61;100.00
19236;BME280;9752;54.270;12.470;2022-07-23T22:33:53;101914.94;;;15.63;100.00
19236;BME280;9752;54.270;12.470;2022-07-23T22:38:55;101898.53;;;15.66;100.00
19236;BME280;9752;54.270;12.470;2022-07-23T22:43:57;101906.03;;;15.59;100.00
19236;BME280;9752;54.270;12.470;2022-07-23T22:49:00;101901.59;;;15.58;100.00
19236;BME280;9752;54.270;12.470;2022-07-23T22:54:02;101906.63;;;15.55;100.00
19236;BME280;9752;54.270;12.470;2022-07-23T22:59:03;101899.53;;;15.53;100.00
19236;BME280;9752;54.270;12.470;2022-07-23T23:04:07;101902.16;;;15.53;100.00
19236;BME280;9752;54.270;12.470;2022-07-23T23:09:08;101908.09;;;15.50;100.00
19236;BME280;9752;54.270;12.470;2022-07-23T23:14:10;101903.13;;;15.55;100.00
19236;BME280;9752;54.270;12.470;2022-07-23T23:19:14;101903.78;;;15.51;100.00
19236;BME280;9752;54.270;12.470;2022-07-23T23:24:15;101901.97;;;15.50;100.00
19236;BME280;9752;54.270;12.470;2022-07-23T23:29:17;101908.56;;;15.43;100.00
19236;BME280;9752;54.270;12.470;2022-07-23T23:34:20;101910.44;;;15.46;100.00
19236;BME280;9752;54.270;12.470;2022-07-23T23:39:22;101905.06;;;15.42;100.00
19236;BME280;9752;54.270;12.470;2022-07-23T23:44:24;101901.59;;;15.43;100.00
19236;BME280;9752;54.270;12.470;2022-07-23T23:49:27;101904.06;;;15.40;100.00
19236;BME280;9752;54.270;12.470;2022-07-23T23:54:29;101901.25;;;15.37;100.00
19236;BME280;9752;54.270;12.470;2022-07-23T23:59:30;101913.16;;;15.32;100.00
